Wellington, CO

5:02 PM MST on February 06, 2016 (GMT -0700)
La Luna Dairy | | Change Station
CLOSE
Current Station
Personal Weather Station
Location: Wellington, CO
Elevation: 5250 ft
Nearby Weather Stations

Elev 5250 ft 40.72 °N, 105.02 °W | Updated 3 minutes ago

Partly Cloudy
Partly Cloudy
45.0 °F
Feels Like 45 °F
N
3.0
Wind Variable Wind from East
Gusts 8.0 mph

Today
High -- | Low -- °F
--% Chance of Precip.
Yesterday
High -- | Low -- °F
Precip. -- in
Pressure 30.08 in
Visibility 10.0 miles
Clouds Clear
Windchill 45 °F
Dew Point 22 °F
Humidity 39%
Rainfall Not available.
Snow Depth Not available.
7:05 AM 5:23 PM
Waning Crescent, 3% visible
METAR KFNL 062355Z AUTO 00000KT 10SM CLR 01/M06 A3008 RMK AO1 P0001 60012 10040 21020 400401150 57010
Pressure 30.08 in
Visibility 10.0 miles
Clouds Clear
Windchill 45 °F
Dew Point 22 °F
Humidity 39%
Rainfall Not available.
Snow Depth Not available.
7:05 AM 5:23 PM
Waning Crescent, 3% visible
METAR KFNL 062355Z AUTO 00000KT 10SM CLR 01/M06 A3008 RMK AO1 P0001 60012 10040 21020 400401150 57010

10-Day Weather Forecast

Almanac

Astronomy

Feb. 06, 2016 Rise Set
Actual Time
Civil Twilight
Nautical Twilight
Astronomical Twilight
Moon
Length of Visible Light
Length of Day
Tomorrow will be .
, % of the Moon is Illuminated

Today's Extremes

State Highs State Lows

Community

WunderPhotos

Upload Photos

1,891,105 photos uploaded!

WunderBlog® & News

Nearby

Air Quality

  Air Quality AQ Index Pollutant
Not available.

Snow Depth

Station Depth Elevation

Earthquake Activity

City Distance Mag. Time & Date
Minimum magnitude displayed is 2.5.

Coastal Water Temperatures

Place Temperature

Stations

Nearby Weather Stations

Station Location Temp. Windchill Dew Point Humidity Wind Precip. Elev Updated Type
                   

Watches & Warnings

There are currently no watches in effect.